Lobatos, Colorado
Current Conditions -  °F | °C
As of 5:52 PM on Wednesday 22 Oct 2014 (Local Time) from KALS Reporting Station
Clear Clear  
Wind Chill: 56°   Ceiling: Unl
Heat Index: 56°   Visibility: 10mi
Dew Point: 33°   Wind: 7mph
Humidity: 42%   Direction: 240°WSW
Pressure: 30.2"   Gusts: NA
Location:  37.1816°N, 106.262°W
Report Text: KALS 222352Z AUTO 24006KT 10SM CLR 13/01 A3020 RMK AO2 SLP192 T01330006 10178 20133 53005
Loading
Personal Weather Stations






























Interactive Weather Map
Tropical Storm Tracking
New forecast layout! Learn more

10-Day Weather Forecast

Advertisements
Track Severe Weather on mobile